Aviation Digital Data Service (ADDS)

Output produced by METARs form (0239 UTC 22 July 2017)
found at http://www.aviationweather.gov/adds/metars/
 
DGAA 220200Z 23010KT 9999 BKN011 OVC018 25/24 Q1013 NOSIG
TAF DGAA 212300Z 2200/2306 24005KT 9999 BKN010 
     BECMG 2206/2208 8000 BKN014 
     FM221200 19015KT 9999 SCT017 
     BECMG 2218/2220 21010KT BKN013 
     BECMG 2300/2302 24005KT SCT010 BKN017